sensor_id;sensor_type;location;lat;lon;timestamp;P1;durP1;ratioP1;P2;durP2;ratioP2
59476;SDS011;73078;49.762;6.594;2023-11-19T00:01:28;2.65;;;1.60;;
59476;SDS011;73078;49.762;6.594;2023-11-19T00:03:54;1.67;;;1.58;;
59476;SDS011;73078;49.762;6.594;2023-11-19T00:06:20;1.92;;;1.52;;
59476;SDS011;73078;49.762;6.594;2023-11-19T00:08:45;2.38;;;1.73;;
59476;SDS011;73078;49.762;6.594;2023-11-19T00:11:11;2.13;;;1.83;;
59476;SDS011;73078;49.762;6.594;2023-11-19T00:13:40;1.80;;;1.70;;
59476;SDS011;73078;49.762;6.594;2023-11-19T00:16:06;2.15;;;1.60;;
59476;SDS011;73078;49.762;6.594;2023-11-19T00:18:34;1.75;;;1.65;;
59476;SDS011;73078;49.762;6.594;2023-11-19T00:21:01;1.83;;;1.70;;
59476;SDS011;73078;49.762;6.594;2023-11-19T00:23:27;1.75;;;1.65;;
59476;SDS011;73078;49.762;6.594;2023-11-19T00:25:53;1.75;;;1.60;;
59476;SDS011;73078;49.762;6.594;2023-11-19T00:28:19;1.70;;;1.60;;
59476;SDS011;73078;49.762;6.594;2023-11-19T00:30:45;1.58;;;1.48;;
59476;SDS011;73078;49.762;6.594;2023-11-19T00:33:11;1.75;;;1.60;;
59476;SDS011;73078;49.762;6.594;2023-11-19T00:35:37;1.50;;;1.40;;
59476;SDS011;73078;49.762;6.594;2023-11-19T00:38:03;1.63;;;1.52;;
59476;SDS011;73078;49.762;6.594;2023-11-19T00:40:29;1.70;;;1.60;;
59476;SDS011;73078;49.762;6.594;2023-11-19T00:42:55;1.80;;;1.70;;
59476;SDS011;73078;49.762;6.594;2023-11-19T00:45:21;1.80;;;1.70;;
59476;SDS011;73078;49.762;6.594;2023-11-19T00:47:47;2.00;;;1.80;;
59476;SDS011;73078;49.762;6.594;2023-11-19T00:50:13;1.92;;;1.70;;
59476;SDS011;73078;49.762;6.594;2023-11-19T00:52:39;1.98;;;1.80;;
59476;SDS011;73078;49.762;6.594;2023-11-19T00:55:05;2.05;;;1.83;;
59476;SDS011;73078;49.762;6.594;2023-11-19T00:57:31;2.83;;;1.90;;
59476;SDS011;73078;49.762;6.594;2023-11-19T00:59:58;2.10;;;1.90;;
59476;SDS011;73078;49.762;6.594;2023-11-19T01:02:24;2.92;;;2.05;;
59476;SDS011;73078;49.762;6.594;2023-11-19T01:04:50;2.70;;;1.90;;
59476;SDS011;73078;49.762;6.594;2023-11-19T01:07:17;2.67;;;2.17;;
59476;SDS011;73078;49.762;6.594;2023-11-19T01:09:43;3.13;;;2.40;;
59476;SDS011;73078;49.762;6.594;2023-11-19T01:12:09;2.53;;;2.20;;
59476;SDS011;73078;49.762;6.594;2023-11-19T01:14:35;3.42;;;2.40;;
59476;SDS011;73078;49.762;6.594;2023-11-19T01:17:02;3.88;;;2.60;;
59476;SDS011;73078;49.762;6.594;2023-11-19T01:19:29;3.38;;;2.50;;
59476;SDS011;73078;49.762;6.594;2023-11-19T01:21:55;3.30;;;2.33;;
59476;SDS011;73078;49.762;6.594;2023-11-19T01:24:21;3.08;;;2.35;;
59476;SDS011;73078;49.762;6.594;2023-11-19T01:26:47;3.33;;;2.60;;
59476;SDS011;73078;49.762;6.594;2023-11-19T01:29:14;3.88;;;2.70;;
59476;SDS011;73078;49.762;6.594;2023-11-19T01:31:40;3.42;;;2.50;;
59476;SDS011;73078;49.762;6.594;2023-11-19T01:34:07;3.33;;;2.75;;
59476;SDS011;73078;49.762;6.594;2023-11-19T01:36:33;4.35;;;2.67;;
59476;SDS011;73078;49.762;6.594;2023-11-19T01:38:59;3.85;;;2.70;;
59476;SDS011;73078;49.762;6.594;2023-11-19T01:41:25;4.10;;;2.58;;
59476;SDS011;73078;49.762;6.594;2023-11-19T01:43:51;3.15;;;2.45;;
59476;SDS011;73078;49.762;6.594;2023-11-19T01:46:17;3.47;;;2.40;;
59476;SDS011;73078;49.762;6.594;2023-11-19T01:48:44;3.38;;;2.53;;
59476;SDS011;73078;49.762;6.594;2023-11-19T01:51:11;4.50;;;2.60;;
59476;SDS011;73078;49.762;6.594;2023-11-19T01:53:38;4.32;;;2.35;;
59476;SDS011;73078;49.762;6.594;2023-11-19T01:56:05;3.60;;;2.70;;
59476;SDS011;73078;49.762;6.594;2023-11-19T01:58:36;3.47;;;2.60;;
59476;SDS011;73078;49.762;6.594;2023-11-19T02:01:04;3.85;;;2.83;;
59476;SDS011;73078;49.762;6.594;2023-11-19T02:03:31;4.22;;;3.00;;
59476;SDS011;73078;49.762;6.594;2023-11-19T02:05:58;4.50;;;2.90;;
59476;SDS011;73078;49.762;6.594;2023-11-19T02:08:24;4.97;;;3.08;;
59476;SDS011;73078;49.762;6.594;2023-11-19T02:10:51;4.50;;;3.10;;
59476;SDS011;73078;49.762;6.594;2023-11-19T02:13:17;4.32;;;2.90;;
59476;SDS011;73078;49.762;6.594;2023-11-19T02:15:43;5.43;;;3.28;;
59476;SDS011;73078;49.762;6.594;2023-11-19T02:18:22;4.47;;;3.40;;
59476;SDS011;73078;49.762;6.594;2023-11-19T02:20:49;3.92;;;3.08;;
59476;SDS011;73078;49.762;6.594;2023-11-19T02:23:15;4.95;;;3.47;;
59476;SDS011;73078;49.762;6.594;2023-11-19T02:25:42;6.55;;;3.50;;
59476;SDS011;73078;49.762;6.594;2023-11-19T02:28:08;4.70;;;3.63;;
59476;SDS011;73078;49.762;6.594;2023-11-19T02:30:37;6.20;;;3.70;;
59476;SDS011;73078;49.762;6.594;2023-11-19T02:33:02;7.38;;;4.10;;
59476;SDS011;73078;49.762;6.594;2023-11-19T02:35:30;7.60;;;4.30;;
59476;SDS011;73078;49.762;6.594;2023-11-19T02:37:57;6.65;;;4.32;;
59476;SDS011;73078;49.762;6.594;2023-11-19T02:40:23;6.50;;;4.40;;
59476;SDS011;73078;49.762;6.594;2023-11-19T02:42:49;6.20;;;4.43;;
59476;SDS011;73078;49.762;6.594;2023-11-19T02:45:15;7.90;;;4.53;;
59476;SDS011;73078;49.762;6.594;2023-11-19T02:47:42;6.35;;;4.13;;
59476;SDS011;73078;49.762;6.594;2023-11-19T02:50:11;6.22;;;3.78;;
59476;SDS011;73078;49.762;6.594;2023-11-19T02:52:40;5.50;;;4.25;;
59476;SDS011;73078;49.762;6.594;2023-11-19T02:55:07;8.25;;;4.75;;
59476;SDS011;73078;49.762;6.594;2023-11-19T02:57:38;8.70;;;5.38;;
59476;SDS011;73078;49.762;6.594;2023-11-19T03:00:11;8.52;;;5.32;;
59476;SDS011;73078;49.762;6.594;2023-11-19T03:02:40;10.05;;;6.35;;
59476;SDS011;73078;49.762;6.594;2023-11-19T03:05:18;9.20;;;5.82;;
59476;SDS011;73078;49.762;6.594;2023-11-19T03:07:44;9.05;;;5.75;;
59476;SDS011;73078;49.762;6.594;2023-11-19T03:10:10;9.43;;;5.88;;
59476;SDS011;73078;49.762;6.594;2023-11-19T03:12:40;9.23;;;4.60;;
59476;SDS011;73078;49.762;6.594;2023-11-19T03:15:06;8.23;;;5.78;;
59476;SDS011;73078;49.762;6.594;2023-11-19T03:17:34;9.10;;;5.63;;
59476;SDS011;73078;49.762;6.594;2023-11-19T03:20:00;10.02;;;5.25;;
59476;SDS011;73078;49.762;6.594;2023-11-19T03:22:26;13.20;;;5.53;;
59476;SDS011;73078;49.762;6.594;2023-11-19T03:24:52;9.13;;;5.63;;
59476;SDS011;73078;49.762;6.594;2023-11-19T03:27:18;8.35;;;5.20;;
59476;SDS011;73078;49.762;6.594;2023-11-19T03:29:44;9.07;;;5.30;;
59476;SDS011;73078;49.762;6.594;2023-11-19T03:32:10;5.90;;;3.97;;
59476;SDS011;73078;49.762;6.594;2023-11-19T03:34:37;7.40;;;4.45;;
59476;SDS011;73078;49.762;6.594;2023-11-19T03:37:03;6.07;;;4.53;;
59476;SDS011;73078;49.762;6.594;2023-11-19T03:39:29;8.40;;;5.18;;
59476;SDS011;73078;49.762;6.594;2023-11-19T03:41:55;6.18;;;4.15;;
59476;SDS011;73078;49.762;6.594;2023-11-19T03:44:21;7.97;;;4.90;;
59476;SDS011;73078;49.762;6.594;2023-11-19T03:46:47;6.65;;;4.50;;
59476;SDS011;73078;49.762;6.594;2023-11-19T03:49:12;6.07;;;4.40;;
59476;SDS011;73078;49.762;6.594;2023-11-19T03:51:38;6.13;;;4.43;;
59476;SDS011;73078;49.762;6.594;2023-11-19T03:54:05;7.63;;;4.82;;
59476;SDS011;73078;49.762;6.594;2023-11-19T03:56:31;10.25;;;5.38;;
59476;SDS011;73078;49.762;6.594;2023-11-19T03:58:57;8.90;;;6.07;;
59476;SDS011;73078;49.762;6.594;2023-11-19T04:01:23;11.02;;;5.68;;
59476;SDS011;73078;49.762;6.594;2023-11-19T04:03:49;7.82;;;5.30;;
59476;SDS011;73078;49.762;6.594;2023-11-19T04:06:15;10.45;;;6.20;;
59476;SDS011;73078;49.762;6.594;2023-11-19T04:08:41;10.60;;;5.80;;
59476;SDS011;73078;49.762;6.594;2023-11-19T04:11:07;7.88;;;5.68;;
59476;SDS011;73078;49.762;6.594;2023-11-19T04:13:33;8.23;;;5.28;;
59476;SDS011;73078;49.762;6.594;2023-11-19T04:15:59;9.38;;;5.85;;
59476;SDS011;73078;49.762;6.594;2023-11-19T04:18:26;11.25;;;6.45;;
59476;SDS011;73078;49.762;6.594;2023-11-19T04:20:52;9.70;;;6.93;;
59476;SDS011;73078;49.762;6.594;2023-11-19T04:23:18;10.85;;;6.88;;
59476;SDS011;73078;49.762;6.594;2023-11-19T04:25:44;9.90;;;6.68;;
59476;SDS011;73078;49.762;6.594;2023-11-19T04:28:10;9.50;;;7.05;;
59476;SDS011;73078;49.762;6.594;2023-11-19T04:30:36;9.88;;;6.85;;
59476;SDS011;73078;49.762;6.594;2023-11-19T04:33:02;9.18;;;5.82;;
59476;SDS011;73078;49.762;6.594;2023-11-19T04:35:29;9.07;;;6.07;;
59476;SDS011;73078;49.762;6.594;2023-11-19T04:37:55;8.77;;;5.57;;
59476;SDS011;73078;49.762;6.594;2023-11-19T04:40:22;7.68;;;5.40;;
59476;SDS011;73078;49.762;6.594;2023-11-19T04:42:48;8.70;;;4.95;;
59476;SDS011;73078;49.762;6.594;2023-11-19T04:45:14;8.10;;;4.57;;
59476;SDS011;73078;49.762;6.594;2023-11-19T04:47:41;6.13;;;4.82;;
59476;SDS011;73078;49.762;6.594;2023-11-19T04:50:07;5.85;;;4.03;;
59476;SDS011;73078;49.762;6.594;2023-11-19T04:52:37;8.13;;;4.88;;
59476;SDS011;73078;49.762;6.594;2023-11-19T04:55:04;7.43;;;4.03;;
59476;SDS011;73078;49.762;6.594;2023-11-19T04:57:30;8.38;;;4.72;;
59476;SDS011;73078;49.762;6.594;2023-11-19T04:59:57;5.88;;;4.13;;
59476;SDS011;73078;49.762;6.594;2023-11-19T05:02:23;8.70;;;4.15;;
59476;SDS011;73078;49.762;6.594;2023-11-19T05:04:49;6.90;;;4.35;;
59476;SDS011;73078;49.762;6.594;2023-11-19T05:07:15;6.57;;;4.43;;
59476;SDS011;73078;49.762;6.594;2023-11-19T05:09:41;8.07;;;4.60;;
59476;SDS011;73078;49.762;6.594;2023-11-19T05:12:08;8.52;;;4.57;;
59476;SDS011;73078;49.762;6.594;2023-11-19T05:14:37;8.70;;;5.22;;
59476;SDS011;73078;49.762;6.594;2023-11-19T05:17:03;6.90;;;4.80;;
59476;SDS011;73078;49.762;6.594;2023-11-19T05:19:29;7.70;;;4.95;;
59476;SDS011;73078;49.762;6.594;2023-11-19T05:21:55;6.90;;;4.75;;
59476;SDS011;73078;49.762;6.594;2023-11-19T05:24:21;9.48;;;5.50;;
59476;SDS011;73078;49.762;6.594;2023-11-19T05:26:47;9.82;;;5.75;;
59476;SDS011;73078;49.762;6.594;2023-11-19T05:29:15;10.30;;;5.53;;
59476;SDS011;73078;49.762;6.594;2023-11-19T05:31:41;11.43;;;5.45;;
59476;SDS011;73078;49.762;6.594;2023-11-19T05:34:07;9.20;;;5.30;;
59476;SDS011;73078;49.762;6.594;2023-11-19T05:36:33;8.57;;;5.40;;
59476;SDS011;73078;49.762;6.594;2023-11-19T05:38:59;6.63;;;4.80;;
59476;SDS011;73078;49.762;6.594;2023-11-19T05:41:25;9.98;;;4.85;;
59476;SDS011;73078;49.762;6.594;2023-11-19T05:43:51;8.77;;;4.35;;
59476;SDS011;73078;49.762;6.594;2023-11-19T05:46:17;7.65;;;4.50;;
59476;SDS011;73078;49.762;6.594;2023-11-19T05:48:43;9.43;;;4.68;;
59476;SDS011;73078;49.762;6.594;2023-11-19T05:51:10;6.80;;;4.10;;
59476;SDS011;73078;49.762;6.594;2023-11-19T05:53:36;9.43;;;4.40;;
59476;SDS011;73078;49.762;6.594;2023-11-19T05:56:02;7.15;;;4.50;;
59476;SDS011;73078;49.762;6.594;2023-11-19T05:58:29;8.10;;;4.00;;
59476;SDS011;73078;49.762;6.594;2023-11-19T06:00:55;5.93;;;3.70;;
59476;SDS011;73078;49.762;6.594;2023-11-19T06:03:21;6.47;;;3.90;;
59476;SDS011;73078;49.762;6.594;2023-11-19T06:05:48;7.85;;;3.70;;
59476;SDS011;73078;49.762;6.594;2023-11-19T06:08:14;5.00;;;3.20;;
59476;SDS011;73078;49.762;6.594;2023-11-19T06:10:40;4.95;;;3.50;;
59476;SDS011;73078;49.762;6.594;2023-11-19T06:13:06;6.72;;;3.50;;
59476;SDS011;73078;49.762;6.594;2023-11-19T06:15:35;8.30;;;3.80;;
59476;SDS011;73078;49.762;6.594;2023-11-19T06:18:01;7.03;;;3.10;;
59476;SDS011;73078;49.762;6.594;2023-11-19T06:20:32;8.90;;;3.80;;
59476;SDS011;73078;49.762;6.594;2023-11-19T06:25:24;10.40;;;3.20;;
59476;SDS011;73078;49.762;6.594;2023-11-19T06:27:50;7.72;;;3.17;;
59476;SDS011;73078;49.762;6.594;2023-11-19T06:30:16;6.22;;;3.42;;
59476;SDS011;73078;49.762;6.594;2023-11-19T06:32:42;8.50;;;3.30;;
59476;SDS011;73078;49.762;6.594;2023-11-19T06:35:08;6.28;;;3.47;;
59476;SDS011;73078;49.762;6.594;2023-11-19T06:37:34;9.10;;;3.53;;
59476;SDS011;73078;49.762;6.594;2023-11-19T06:40:01;7.90;;;3.22;;
59476;SDS011;73078;49.762;6.594;2023-11-19T06:42:27;8.43;;;3.50;;
59476;SDS011;73078;49.762;6.594;2023-11-19T06:44:53;6.13;;;3.22;;
59476;SDS011;73078;49.762;6.594;2023-11-19T06:47:19;6.10;;;3.10;;
59476;SDS011;73078;49.762;6.594;2023-11-19T06:49:45;7.43;;;3.20;;
59476;SDS011;73078;49.762;6.594;2023-11-19T06:52:11;5.95;;;3.17;;
59476;SDS011;73078;49.762;6.594;2023-11-19T06:54:40;6.72;;;3.20;;
59476;SDS011;73078;49.762;6.594;2023-11-19T06:57:06;6.60;;;3.22;;
59476;SDS011;73078;49.762;6.594;2023-11-19T06:59:34;9.63;;;3.85;;
59476;SDS011;73078;49.762;6.594;2023-11-19T07:02:00;6.35;;;3.20;;
59476;SDS011;73078;49.762;6.594;2023-11-19T07:04:26;8.48;;;3.40;;
59476;SDS011;73078;49.762;6.594;2023-11-19T07:06:52;6.63;;;3.28;;
59476;SDS011;73078;49.762;6.594;2023-11-19T07:09:18;9.30;;;3.10;;
59476;SDS011;73078;49.762;6.594;2023-11-19T07:11:44;7.07;;;3.65;;
59476;SDS011;73078;49.762;6.594;2023-11-19T07:14:11;9.50;;;3.83;;
59476;SDS011;73078;49.762;6.594;2023-11-19T07:16:37;7.97;;;3.22;;
59476;SDS011;73078;49.762;6.594;2023-11-19T07:19:06;6.93;;;3.55;;
59476;SDS011;73078;49.762;6.594;2023-11-19T07:21:32;6.35;;;3.65;;
59476;SDS011;73078;49.762;6.594;2023-11-19T07:23:58;6.95;;;3.65;;
59476;SDS011;73078;49.762;6.594;2023-11-19T07:26:24;10.20;;;4.30;;
59476;SDS011;73078;49.762;6.594;2023-11-19T07:28:50;9.73;;;3.45;;
59476;SDS011;73078;49.762;6.594;2023-11-19T07:31:17;9.32;;;3.60;;
59476;SDS011;73078;49.762;6.594;2023-11-19T07:33:46;7.63;;;3.30;;
59476;SDS011;73078;49.762;6.594;2023-11-19T07:36:13;6.03;;;3.30;;
59476;SDS011;73078;49.762;6.594;2023-11-19T07:38:39;5.82;;;2.83;;
59476;SDS011;73078;49.762;6.594;2023-11-19T07:41:05;7.38;;;3.10;;
59476;SDS011;73078;49.762;6.594;2023-11-19T07:43:32;7.20;;;2.90;;
59476;SDS011;73078;49.762;6.594;2023-11-19T07:45:58;5.95;;;2.95;;
59476;SDS011;73078;49.762;6.594;2023-11-19T07:48:25;6.93;;;2.95;;
59476;SDS011;73078;49.762;6.594;2023-11-19T07:50:51;5.22;;;2.97;;
59476;SDS011;73078;49.762;6.594;2023-11-19T07:53:18;5.68;;;2.72;;
59476;SDS011;73078;49.762;6.594;2023-11-19T07:55:44;4.72;;;2.78;;
59476;SDS011;73078;49.762;6.594;2023-11-19T07:58:12;5.03;;;2.70;;
59476;SDS011;73078;49.762;6.594;2023-11-19T08:00:38;5.68;;;3.05;;
59476;SDS011;73078;49.762;6.594;2023-11-19T08:03:05;7.03;;;3.30;;
59476;SDS011;73078;49.762;6.594;2023-11-19T08:05:31;5.80;;;3.10;;
59476;SDS011;73078;49.762;6.594;2023-11-19T08:07:57;8.63;;;2.95;;
59476;SDS011;73078;49.762;6.594;2023-11-19T08:10:23;5.90;;;3.20;;
59476;SDS011;73078;49.762;6.594;2023-11-19T08:12:49;6.85;;;2.72;;
59476;SDS011;73078;49.762;6.594;2023-11-19T08:15:15;8.52;;;3.13;;
59476;SDS011;73078;49.762;6.594;2023-11-19T08:17:41;6.35;;;2.63;;
59476;SDS011;73078;49.762;6.594;2023-11-19T08:20:08;6.13;;;2.90;;
59476;SDS011;73078;49.762;6.594;2023-11-19T08:22:38;5.20;;;2.53;;
59476;SDS011;73078;49.762;6.594;2023-11-19T08:25:04;5.18;;;2.67;;
59476;SDS011;73078;49.762;6.594;2023-11-19T08:27:31;9.38;;;2.70;;
59476;SDS011;73078;49.762;6.594;2023-11-19T08:29:57;7.25;;;2.67;;
59476;SDS011;73078;49.762;6.594;2023-11-19T08:32:24;6.50;;;2.67;;
59476;SDS011;73078;49.762;6.594;2023-11-19T08:34:50;5.85;;;2.67;;
59476;SDS011;73078;49.762;6.594;2023-11-19T08:37:16;5.43;;;2.72;;
59476;SDS011;73078;49.762;6.594;2023-11-19T08:39:47;7.53;;;2.70;;
59476;SDS011;73078;49.762;6.594;2023-11-19T08:42:13;7.63;;;2.85;;
59476;SDS011;73078;49.762;6.594;2023-11-19T08:44:39;7.35;;;2.92;;
59476;SDS011;73078;49.762;6.594;2023-11-19T08:49:35;7.88;;;2.80;;
59476;SDS011;73078;49.762;6.594;2023-11-19T08:52:01;6.35;;;2.95;;
59476;SDS011;73078;49.762;6.594;2023-11-19T08:54:27;7.82;;;2.65;;
59476;SDS011;73078;49.762;6.594;2023-11-19T08:56:52;6.07;;;2.83;;
59476;SDS011;73078;49.762;6.594;2023-11-19T08:59:19;7.10;;;3.13;;
59476;SDS011;73078;49.762;6.594;2023-11-19T09:01:45;5.63;;;2.70;;
59476;SDS011;73078;49.762;6.594;2023-11-19T09:04:11;6.60;;;2.63;;
59476;SDS011;73078;49.762;6.594;2023-11-19T09:06:37;8.32;;;3.10;;
59476;SDS011;73078;49.762;6.594;2023-11-19T09:09:03;7.32;;;3.15;;
59476;SDS011;73078;49.762;6.594;2023-11-19T09:11:30;11.50;;;3.00;;
59476;SDS011;73078;49.762;6.594;2023-11-19T09:13:56;6.43;;;2.75;;
59476;SDS011;73078;49.762;6.594;2023-11-19T09:16:22;6.78;;;2.78;;
59476;SDS011;73078;49.762;6.594;2023-11-19T09:18:49;5.95;;;2.50;;
59476;SDS011;73078;49.762;6.594;2023-11-19T09:21:15;6.97;;;2.97;;
59476;SDS011;73078;49.762;6.594;2023-11-19T09:23:41;12.13;;;3.05;;
59476;SDS011;73078;49.762;6.594;2023-11-19T09:26:10;8.70;;;2.80;;
59476;SDS011;73078;49.762;6.594;2023-11-19T09:28:36;5.93;;;2.50;;
59476;SDS011;73078;49.762;6.594;2023-11-19T09:31:02;10.65;;;2.80;;
59476;SDS011;73078;49.762;6.594;2023-11-19T09:33:31;6.50;;;2.57;;
59476;SDS011;73078;49.762;6.594;2023-11-19T09:35:57;4.75;;;2.17;;
59476;SDS011;73078;49.762;6.594;2023-11-19T09:38:23;9.77;;;2.75;;
59476;SDS011;73078;49.762;6.594;2023-11-19T09:40:49;6.13;;;2.30;;
59476;SDS011;73078;49.762;6.594;2023-11-19T09:43:15;7.72;;;2.50;;
59476;SDS011;73078;49.762;6.594;2023-11-19T09:45:50;6.53;;;2.35;;
59476;SDS011;73078;49.762;6.594;2023-11-19T09:48:17;5.45;;;2.45;;
59476;SDS011;73078;49.762;6.594;2023-11-19T09:50:44;6.63;;;2.45;;
59476;SDS011;73078;49.762;6.594;2023-11-19T09:53:10;7.80;;;3.00;;
59476;SDS011;73078;49.762;6.594;2023-11-19T09:55:36;3.92;;;2.17;;
59476;SDS011;73078;49.762;6.594;2023-11-19T09:58:02;9.70;;;2.70;;
59476;SDS011;73078;49.762;6.594;2023-11-19T10:00:28;8.30;;;2.53;;
59476;SDS011;73078;49.762;6.594;2023-11-19T10:02:54;8.20;;;2.50;;
59476;SDS011;73078;49.762;6.594;2023-11-19T10:05:22;9.35;;;2.35;;
59476;SDS011;73078;49.762;6.594;2023-11-19T10:07:49;6.88;;;1.92;;
59476;SDS011;73078;49.762;6.594;2023-11-19T10:10:15;11.93;;;2.63;;
59476;SDS011;73078;49.762;6.594;2023-11-19T10:12:44;9.68;;;2.50;;
59476;SDS011;73078;49.762;6.594;2023-11-19T10:15:14;8.70;;;2.42;;
59476;SDS011;73078;49.762;6.594;2023-11-19T10:17:43;6.45;;;2.60;;
59476;SDS011;73078;49.762;6.594;2023-11-19T10:20:09;7.55;;;2.72;;
59476;SDS011;73078;49.762;6.594;2023-11-19T10:22:38;8.57;;;2.53;;
59476;SDS011;73078;49.762;6.594;2023-11-19T10:25:26;8.05;;;2.55;;
59476;SDS011;73078;49.762;6.594;2023-11-19T10:27:57;11.07;;;2.58;;
59476;SDS011;73078;49.762;6.594;2023-11-19T10:30:23;8.07;;;2.97;;
59476;SDS011;73078;49.762;6.594;2023-11-19T10:33:24;9.10;;;2.33;;
59476;SDS011;73078;49.762;6.594;2023-11-19T10:35:54;10.93;;;2.70;;
59476;SDS011;73078;49.762;6.594;2023-11-19T10:38:27;10.15;;;2.78;;
59476;SDS011;73078;49.762;6.594;2023-11-19T10:40:53;8.07;;;2.40;;
59476;SDS011;73078;49.762;6.594;2023-11-19T10:43:22;7.40;;;2.20;;
59476;SDS011;73078;49.762;6.594;2023-11-19T10:45:48;9.70;;;2.72;;
59476;SDS011;73078;49.762;6.594;2023-11-19T10:48:15;8.40;;;2.40;;
59476;SDS011;73078;49.762;6.594;2023-11-19T10:50:42;8.95;;;2.58;;
59476;SDS011;73078;49.762;6.594;2023-11-19T10:53:09;8.75;;;2.90;;
59476;SDS011;73078;49.762;6.594;2023-11-19T10:55:36;8.95;;;3.33;;
59476;SDS011;73078;49.762;6.594;2023-11-19T10:58:05;7.55;;;2.17;;
59476;SDS011;73078;49.762;6.594;2023-11-19T11:00:48;9.27;;;2.63;;
59476;SDS011;73078;49.762;6.594;2023-11-19T11:03:17;10.13;;;3.28;;
59476;SDS011;73078;49.762;6.594;2023-11-19T11:05:45;13.38;;;2.75;;
59476;SDS011;73078;49.762;6.594;2023-11-19T11:08:12;10.55;;;3.28;;
59476;SDS011;73078;49.762;6.594;2023-11-19T11:10:39;7.55;;;2.60;;
59476;SDS011;73078;49.762;6.594;2023-11-19T11:15:34;8.38;;;2.60;;
59476;SDS011;73078;49.762;6.594;2023-11-19T11:18:01;6.75;;;2.75;;
59476;SDS011;73078;49.762;6.594;2023-11-19T11:20:30;9.73;;;3.22;;
59476;SDS011;73078;49.762;6.594;2023-11-19T11:31:16;5.88;;;2.00;;
59476;SDS011;73078;49.762;6.594;2023-11-19T11:36:22;7.70;;;2.30;;
59476;SDS011;73078;49.762;6.594;2023-11-19T11:38:48;8.73;;;2.33;;
59476;SDS011;73078;49.762;6.594;2023-11-19T11:41:15;9.63;;;2.55;;
59476;SDS011;73078;49.762;6.594;2023-11-19T11:43:45;7.55;;;2.40;;
59476;SDS011;73078;49.762;6.594;2023-11-19T11:48:57;10.10;;;2.83;;
59476;SDS011;73078;49.762;6.594;2023-11-19T11:54:08;10.55;;;2.83;;
59476;SDS011;73078;49.762;6.594;2023-11-19T11:56:38;10.23;;;3.20;;
59476;SDS011;73078;49.762;6.594;2023-11-19T11:59:07;12.45;;;2.63;;
59476;SDS011;73078;49.762;6.594;2023-11-19T12:01:33;10.55;;;2.90;;
59476;SDS011;73078;49.762;6.594;2023-11-19T12:04:00;9.57;;;2.80;;
59476;SDS011;73078;49.762;6.594;2023-11-19T12:06:27;10.70;;;3.03;;
59476;SDS011;73078;49.762;6.594;2023-11-19T12:08:57;8.85;;;2.38;;
59476;SDS011;73078;49.762;6.594;2023-11-19T12:11:25;11.05;;;2.90;;
59476;SDS011;73078;49.762;6.594;2023-11-19T12:13:53;6.72;;;2.30;;
59476;SDS011;73078;49.762;6.594;2023-11-19T12:16:27;9.40;;;2.63;;
59476;SDS011;73078;49.762;6.594;2023-11-19T12:18:54;7.05;;;2.25;;
59476;SDS011;73078;49.762;6.594;2023-11-19T12:21:30;10.38;;;3.13;;
59476;SDS011;73078;49.762;6.594;2023-11-19T12:23:58;11.60;;;2.22;;
59476;SDS011;73078;49.762;6.594;2023-11-19T12:26:33;9.10;;;2.50;;
59476;SDS011;73078;49.762;6.594;2023-11-19T12:28:59;10.85;;;3.00;;
59476;SDS011;73078;49.762;6.594;2023-11-19T12:31:25;9.75;;;2.88;;
59476;SDS011;73078;49.762;6.594;2023-11-19T12:33:51;8.80;;;2.83;;
59476;SDS011;73078;49.762;6.594;2023-11-19T12:36:18;6.00;;;2.45;;
59476;SDS011;73078;49.762;6.594;2023-11-19T12:38:44;9.30;;;2.75;;
59476;SDS011;73078;49.762;6.594;2023-11-19T12:41:11;10.00;;;2.80;;
59476;SDS011;73078;49.762;6.594;2023-11-19T12:43:38;10.32;;;2.85;;
59476;SDS011;73078;49.762;6.594;2023-11-19T12:46:20;10.55;;;2.97;;
59476;SDS011;73078;49.762;6.594;2023-11-19T12:48:50;10.48;;;3.03;;
59476;SDS011;73078;49.762;6.594;2023-11-19T12:51:16;10.00;;;2.33;;
59476;SDS011;73078;49.762;6.594;2023-11-19T12:53:51;10.55;;;2.65;;
59476;SDS011;73078;49.762;6.594;2023-11-19T12:56:20;10.57;;;2.85;;
59476;SDS011;73078;49.762;6.594;2023-11-19T12:58:46;7.53;;;2.53;;
59476;SDS011;73078;49.762;6.594;2023-11-19T13:01:16;9.10;;;2.35;;
59476;SDS011;73078;49.762;6.594;2023-11-19T13:03:43;9.80;;;2.67;;
59476;SDS011;73078;49.762;6.594;2023-11-19T13:06:13;8.90;;;2.78;;
59476;SDS011;73078;49.762;6.594;2023-11-19T13:08:44;12.65;;;3.47;;
59476;SDS011;73078;49.762;6.594;2023-11-19T13:11:10;9.90;;;2.72;;
59476;SDS011;73078;49.762;6.594;2023-11-19T13:13:56;7.60;;;2.55;;
59476;SDS011;73078;49.762;6.594;2023-11-19T13:16:23;7.95;;;2.40;;
59476;SDS011;73078;49.762;6.594;2023-11-19T13:18:49;5.38;;;2.28;;
59476;SDS011;73078;49.762;6.594;2023-11-19T13:21:15;5.35;;;2.50;;
59476;SDS011;73078;49.762;6.594;2023-11-19T13:23:41;11.40;;;2.67;;
59476;SDS011;73078;49.762;6.594;2023-11-19T13:26:08;9.52;;;2.50;;
59476;SDS011;73078;49.762;6.594;2023-11-19T13:28:34;9.38;;;3.00;;
59476;SDS011;73078;49.762;6.594;2023-11-19T13:31:00;9.10;;;2.53;;
59476;SDS011;73078;49.762;6.594;2023-11-19T13:33:26;12.88;;;2.40;;
59476;SDS011;73078;49.762;6.594;2023-11-19T13:35:52;6.45;;;2.40;;
59476;SDS011;73078;49.762;6.594;2023-11-19T13:38:18;7.15;;;2.00;;
59476;SDS011;73078;49.762;6.594;2023-11-19T13:40:44;7.88;;;3.20;;
59476;SDS011;73078;49.762;6.594;2023-11-19T13:43:10;4.93;;;2.13;;
59476;SDS011;73078;49.762;6.594;2023-11-19T13:45:36;5.60;;;2.53;;
59476;SDS011;73078;49.762;6.594;2023-11-19T13:48:02;7.13;;;2.42;;
59476;SDS011;73078;49.762;6.594;2023-11-19T13:50:29;7.45;;;2.50;;
59476;SDS011;73078;49.762;6.594;2023-11-19T13:52:55;8.27;;;2.20;;
59476;SDS011;73078;49.762;6.594;2023-11-19T13:55:21;6.82;;;2.10;;
59476;SDS011;73078;49.762;6.594;2023-11-19T13:57:47;6.85;;;2.53;;
59476;SDS011;73078;49.762;6.594;2023-11-19T14:00:14;6.93;;;2.35;;
59476;SDS011;73078;49.762;6.594;2023-11-19T14:02:44;7.72;;;2.33;;
59476;SDS011;73078;49.762;6.594;2023-11-19T14:05:10;8.13;;;2.42;;
59476;SDS011;73078;49.762;6.594;2023-11-19T14:07:37;7.32;;;2.72;;
59476;SDS011;73078;49.762;6.594;2023-11-19T14:10:03;7.68;;;2.70;;
59476;SDS011;73078;49.762;6.594;2023-11-19T14:12:30;9.65;;;2.50;;
59476;SDS011;73078;49.762;6.594;2023-11-19T14:14:57;8.95;;;2.63;;
59476;SDS011;73078;49.762;6.594;2023-11-19T14:17:23;11.20;;;2.50;;
59476;SDS011;73078;49.762;6.594;2023-11-19T14:19:52;8.90;;;2.30;;
59476;SDS011;73078;49.762;6.594;2023-11-19T14:22:18;8.20;;;2.25;;
59476;SDS011;73078;49.762;6.594;2023-11-19T14:24:44;6.05;;;2.88;;
59476;SDS011;73078;49.762;6.594;2023-11-19T14:27:10;9.75;;;2.38;;
59476;SDS011;73078;49.762;6.594;2023-11-19T14:29:36;12.90;;;2.67;;
59476;SDS011;73078;49.762;6.594;2023-11-19T14:32:03;7.20;;;2.28;;
59476;SDS011;73078;49.762;6.594;2023-11-19T14:34:29;7.05;;;2.67;;
59476;SDS011;73078;49.762;6.594;2023-11-19T14:36:56;6.38;;;2.70;;
59476;SDS011;73078;49.762;6.594;2023-11-19T14:39:22;9.45;;;2.00;;
59476;SDS011;73078;49.762;6.594;2023-11-19T14:41:48;10.07;;;2.70;;
59476;SDS011;73078;49.762;6.594;2023-11-19T14:44:14;10.10;;;2.75;;
59476;SDS011;73078;49.762;6.594;2023-11-19T14:46:40;7.03;;;2.40;;
59476;SDS011;73078;49.762;6.594;2023-11-19T14:49:06;10.50;;;3.20;;
59476;SDS011;73078;49.762;6.594;2023-11-19T14:51:36;9.45;;;5.30;;
59476;SDS011;73078;49.762;6.594;2023-11-19T14:54:03;8.88;;;3.63;;
59476;SDS011;73078;49.762;6.594;2023-11-19T14:56:29;6.60;;;2.75;;
59476;SDS011;73078;49.762;6.594;2023-11-19T14:58:55;14.10;;;3.08;;
59476;SDS011;73078;49.762;6.594;2023-11-19T15:01:21;7.88;;;2.75;;
59476;SDS011;73078;49.762;6.594;2023-11-19T15:03:47;8.98;;;3.00;;
59476;SDS011;73078;49.762;6.594;2023-11-19T15:06:13;8.38;;;2.55;;
59476;SDS011;73078;49.762;6.594;2023-11-19T15:08:40;8.43;;;2.45;;